Time;durP1;ratioP1;P1;durP2;ratioP2;P2;SDS_P1;SDS_P2;PMS_P1;PMS_P2;Temp;Humidity;BMP_temperature;BMP_pressure;BME280_temperature;BME280_humidity;BME280_pressure;Samples;Min_cycle;Max_cycle;Signal;HPM_P1;HPM_P2
2023/05/14 00:02:34;;;;;;;11.85;7.57;;;16.20;75.50;;;;;;5091225;28;20332;-79
2023/05/14 00:05:28;;;;;;;12.18;8.48;;;16.20;77.10;;;;;;5084617;28;20223;-80
2023/05/14 00:08:17;;;;;;;15.60;9.07;;;16.30;76.40;;;;;;5096941;28;20295;-79
2023/05/14 00:11:09;;;;;;;13.65;8.00;;;16.20;76.60;;;;;;5103462;28;20222;-80
2023/05/14 00:13:58;;;;;;;12.40;8.60;;;16.20;77.40;;;;;;5100533;28;20223;-82
2023/05/14 00:16:46;;;;;;;12.43;9.02;;;16.10;77.70;;;;;;5107526;28;20214;-83
2023/05/14 00:19:35;;;;;;;14.18;9.10;;;16.20;77.50;;;;;;5105032;28;20303;-84
2023/05/14 00:22:29;;;;;;;13.40;9.20;;;16.10;77.80;;;;;;5086041;28;20219;-84
2023/05/14 00:25:18;;;;;;;13.45;8.23;;;16.10;78.10;;;;;;5108384;28;20253;-86
2023/05/14 00:28:06;;;;;;;14.30;9.35;;;16.10;78.40;;;;;;5091645;28;20230;-84
2023/05/14 00:50:21;;;;;;;14.13;9.32;;;15.80;79.90;;;;;;5061568;28;20619;-85
2023/05/14 00:53:11;;;;;;;13.77;9.20;;;15.70;80.00;;;;;;5102128;28;20255;-79
2023/05/14 01:28:38;;;;;;;14.60;9.70;;;15.50;82.70;;;;;;5026998;28;20707;-76
2023/05/14 01:31:28;;;;;;;20.35;10.55;;;15.50;82.70;;;;;;5054052;28;20216;-78
2023/05/14 01:34:20;;;;;;;15.93;10.10;;;15.40;83.00;;;;;;5059636;28;20232;-78
2023/05/14 01:37:12;;;;;;;13.13;10.07;;;15.20;83.30;;;;;;5069731;28;20721;-79
2023/05/14 01:40:02;;;;;;;13.82;9.50;;;15.10;84.30;;;;;;5075342;28;20346;-79
2023/05/14 01:42:52;;;;;;;15.32;10.43;;;15.20;84.50;;;;;;5058201;28;20857;-77
2023/05/14 01:45:43;;;;;;;15.90;10.48;;;15.30;84.50;;;;;;5074762;28;20670;-80
2023/05/14 01:48:32;;;;;;;17.25;11.27;;;15.30;84.50;;;;;;5061195;28;20227;-76
2023/05/14 01:51:21;;;;;;;13.95;11.00;;;15.40;84.30;;;;;;5066953;28;20218;-86
2023/05/14 01:54:10;;;;;;;18.05;12.10;;;15.40;84.70;;;;;;5067198;28;20231;-82
2023/05/14 01:56:58;;;;;;;15.50;11.90;;;15.30;85.30;;;;;;5061230;28;20778;-84
2023/05/14 01:59:48;;;;;;;15.25;11.73;;;15.10;86.20;;;;;;5080114;27;20224;-84
2023/05/14 02:02:38;;;;;;;17.67;11.88;;;15.10;86.70;;;;;;5061693;28;20712;-84
2023/05/14 02:05:28;;;;;;;17.90;12.35;;;15.00;87.50;;;;;;5069230;28;20218;-84
2023/05/14 02:08:17;;;;;;;16.50;12.07;;;14.90;88.90;;;;;;5071303;28;20235;-83
2023/05/14 02:11:06;;;;;;;17.60;12.80;;;15.10;89.60;;;;;;5064098;28;20219;-80
2023/05/14 02:13:54;;;;;;;17.45;12.95;;;15.10;89.90;;;;;;5067810;28;20211;-77
2023/05/14 02:16:43;;;;;;;17.60;12.95;;;15.10;90.40;;;;;;5070355;28;20245;-78
2023/05/14 02:19:34;;;;;;;17.33;12.98;;;14.80;90.30;;;;;;5070196;28;20223;-82
2023/05/14 02:22:22;;;;;;;19.40;13.15;;;14.80;90.40;;;;;;5055214;28;20224;-82
2023/05/14 02:25:11;;;;;;;15.43;12.55;;;14.90;90.60;;;;;;5056442;28;20250;-83
2023/05/14 02:28:00;;;;;;;18.02;12.95;;;14.90;90.50;;;;;;5074054;28;20222;-81
2023/05/14 02:30:48;;;;;;;17.90;12.93;;;14.90;90.60;;;;;;5102754;28;20594;-81
2023/05/14 02:33:37;;;;;;;17.60;12.68;;;14.90;90.60;;;;;;5092921;27;20250;-80
2023/05/14 02:36:28;;;;;;;16.00;13.15;;;14.90;90.80;;;;;;5103410;28;20226;-78
2023/05/14 02:39:16;;;;;;;21.58;13.90;;;14.80;90.80;;;;;;5088990;28;20223;-81
2023/05/14 02:42:07;;;;;;;17.20;13.02;;;14.60;91.10;;;;;;5092883;28;20227;-78
2023/05/14 02:44:55;;;;;;;18.70;13.35;;;14.70;91.40;;;;;;5065386;28;20230;-79
2023/05/14 02:47:44;;;;;;;16.40;13.32;;;14.70;91.30;;;;;;5068395;28;20590;-78
2023/05/14 02:50:34;;;;;;;17.77;14.00;;;14.70;91.50;;;;;;5066208;28;20227;-78
2023/05/14 02:53:24;;;;;;;17.65;13.63;;;14.60;91.50;;;;;;5075372;28;20247;-77
2023/05/14 02:56:13;;;;;;;17.55;13.85;;;14.60;91.60;;;;;;5091169;28;20710;-78
2023/05/14 02:59:02;;;;;;;19.50;14.40;;;14.60;91.60;;;;;;5078661;28;20227;-79
2023/05/14 03:01:51;;;;;;;20.40;13.45;;;14.50;91.60;;;;;;5089077;28;20604;-79
2023/05/14 03:04:40;;;;;;;18.08;12.65;;;14.30;91.70;;;;;;5089362;28;20219;-80
2023/05/14 03:07:29;;;;;;;17.85;12.50;;;14.50;91.60;;;;;;5075739;28;20717;-80
2023/05/14 03:10:20;;;;;;;26.50;12.85;;;14.50;91.30;;;;;;5086448;28;20703;-79
2023/05/14 03:13:09;;;;;;;17.85;12.45;;;14.30;91.40;;;;;;5065893;28;20234;-79
2023/05/14 03:15:58;;;;;;;15.57;12.80;;;14.30;91.20;;;;;;5083417;28;20234;-79
2023/05/14 03:18:47;;;;;;;17.30;11.85;;;14.40;91.30;;;;;;5082566;28;20840;-73
2023/05/14 03:21:36;;;;;;;16.20;12.07;;;14.20;91.10;;;;;;5090977;27;20312;-75
2023/05/14 03:24:25;;;;;;;18.98;12.65;;;14.30;91.60;;;;;;5091010;28;20222;-76
2023/05/14 03:27:15;;;;;;;20.80;12.85;;;14.30;91.10;;;;;;5070799;28;20238;-76
2023/05/14 03:30:04;;;;;;;20.35;12.70;;;14.40;91.10;;;;;;5049024;28;20231;-78
2023/05/14 03:32:53;;;;;;;19.38;13.00;;;14.40;91.00;;;;;;5042341;28;20220;-76
2023/05/14 03:35:42;;;;;;;16.40;11.93;;;14.40;91.00;;;;;;5082184;28;20216;-75
2023/05/14 03:38:31;;;;;;;17.05;12.32;;;14.30;91.00;;;;;;5076883;28;20567;-80
2023/05/14 03:41:20;;;;;;;19.15;12.45;;;14.10;91.30;;;;;;5084016;28;20239;-82
2023/05/14 03:44:10;;;;;;;18.48;12.68;;;14.20;91.30;;;;;;5079220;28;20227;-77
2023/05/14 03:46:59;;;;;;;22.30;14.00;;;14.40;91.30;;;;;;5079761;28;20595;-82
2023/05/14 03:49:48;;;;;;;17.55;12.82;;;14.50;91.40;;;;;;5075679;28;20300;-78
2023/05/14 03:52:37;;;;;;;18.02;13.15;;;14.60;91.20;;;;;;5083986;28;20254;-78
2023/05/14 03:55:26;;;;;;;16.75;13.52;;;14.50;91.30;;;;;;5084450;28;20594;-78
2023/05/14 03:58:18;;;;;;;20.92;13.20;;;14.60;91.20;;;;;;5082402;28;20227;-79
2023/05/14 04:01:08;;;;;;;22.02;13.05;;;14.60;91.40;;;;;;5082314;28;20243;-79
2023/05/14 04:03:57;;;;;;;21.63;13.95;;;14.60;91.40;;;;;;5085551;28;20614;-78
2023/05/14 04:06:46;;;;;;;21.75;13.85;;;14.50;91.50;;;;;;5085982;28;20231;-80
2023/05/14 04:09:37;;;;;;;19.23;13.57;;;14.60;91.10;;;;;;5086104;28;20226;-80
2023/05/14 04:12:26;;;;;;;17.42;12.00;;;14.60;91.10;;;;;;5087316;28;20367;-80
2023/05/14 04:15:16;;;;;;;18.45;13.27;;;14.60;91.20;;;;;;5095456;28;20304;-79
2023/05/14 04:18:06;;;;;;;16.42;12.38;;;14.70;90.90;;;;;;5085584;28;20227;-81
2023/05/14 04:20:55;;;;;;;19.88;12.27;;;14.70;90.90;;;;;;5088659;28;20421;-81
2023/05/14 04:23:43;;;;;;;17.08;12.30;;;14.80;90.60;;;;;;5080654;28;20226;-81
2023/05/14 04:26:32;;;;;;;17.00;11.95;;;14.90;90.60;;;;;;5087085;28;20344;-78
2023/05/14 04:29:21;;;;;;;17.52;12.20;;;14.70;90.20;;;;;;5040405;28;20338;-78
2023/05/14 04:32:11;;;;;;;19.35;11.73;;;14.80;90.70;;;;;;5067601;28;20560;-78
2023/05/14 04:35:01;;;;;;;20.05;12.77;;;14.90;90.40;;;;;;5081582;28;20255;-79
2023/05/14 04:37:50;;;;;;;23.40;13.52;;;15.20;90.50;;;;;;5075192;28;20219;-78
2023/05/14 04:40:38;;;;;;;16.85;12.90;;;15.30;90.00;;;;;;5079466;28;20219;-80
2023/05/14 04:43:27;;;;;;;21.52;13.60;;;15.30;90.00;;;;;;5082432;28;20228;-79
2023/05/14 04:46:16;;;;;;;17.25;12.75;;;15.40;90.00;;;;;;5078589;28;20318;-77
2023/05/14 04:49:05;;;;;;;19.45;12.57;;;15.40;89.40;;;;;;5074762;28;20957;-78
2023/05/14 04:51:55;;;;;;;16.05;11.77;;;15.30;90.20;;;;;;5071199;28;20289;-79
2023/05/14 04:54:44;;;;;;;18.38;11.95;;;15.70;90.10;;;;;;5084273;28;20239;-79
2023/05/14 04:57:33;;;;;;;19.48;12.50;;;15.80;88.80;;;;;;5076644;28;20646;-80
2023/05/14 05:00:22;;;;;;;16.33;12.27;;;16.00;88.20;;;;;;5080202;28;20223;-80
2023/05/14 05:03:11;;;;;;;17.42;12.48;;;15.70;87.20;;;;;;5085938;28;20223;-78
2023/05/14 05:06:00;;;;;;;17.48;11.38;;;15.70;88.50;;;;;;5099420;28;20222;-78
2023/05/14 05:08:51;;;;;;;17.70;11.35;;;15.70;88.60;;;;;;5085904;28;20758;-79
2023/05/14 05:11:39;;;;;;;18.30;11.55;;;16.00;87.30;;;;;;5085236;28;20238;-79
2023/05/14 05:14:28;;;;;;;18.00;11.75;;;16.20;87.20;;;;;;5077656;28;20249;-79
2023/05/14 05:17:17;;;;;;;22.67;12.55;;;16.30;85.90;;;;;;5085780;28;20238;-79
2023/05/14 05:20:08;;;;;;;16.92;12.02;;;16.40;86.60;;;;;;5087275;28;20235;-78
2023/05/14 05:22:58;;;;;;;16.85;11.10;;;16.60;85.80;;;;;;5084805;28;20272;-81
2023/05/14 05:25:48;;;;;;;14.15;10.30;;;16.60;85.10;;;;;;5082185;28;20563;-78
2023/05/14 05:28:37;;;;;;;18.75;11.10;;;16.50;83.00;;;;;;5079682;28;20264;-80
2023/05/14 05:31:26;;;;;;;15.48;10.95;;;16.80;84.90;;;;;;5070009;28;20216;-81
2023/05/14 05:34:15;;;;;;;15.43;10.50;;;16.90;82.70;;;;;;5060362;28;20208;-81
2023/05/14 05:37:04;;;;;;;17.48;10.88;;;16.70;82.80;;;;;;5055423;28;20221;-81
2023/05/14 05:39:53;;;;;;;15.00;10.63;;;16.60;83.60;;;;;;5067086;28;20326;-79
2023/05/14 05:42:43;;;;;;;18.42;10.68;;;16.80;83.20;;;;;;5059951;28;20229;-77
2023/05/14 05:45:36;;;;;;;15.80;11.27;;;16.90;81.90;;;;;;5057381;28;20238;-83
2023/05/14 05:48:25;;;;;;;15.65;10.35;;;16.90;81.40;;;;;;5078399;28;20218;-80
2023/05/14 05:51:14;;;;;;;13.23;10.40;;;17.30;82.50;;;;;;5054551;28;20323;-83
2023/05/14 05:54:02;;;;;;;17.92;9.63;;;18.60;79.60;;;;;;5066314;28;20236;-82
2023/05/14 05:56:51;;;;;;;12.07;9.52;;;20.40;74.40;;;;;;5057916;28;20228;-82
2023/05/14 05:59:41;;;;;;;14.80;10.18;;;22.30;68.00;;;;;;5060832;28;20710;-83
2023/05/14 06:02:30;;;;;;;16.73;9.85;;;21.60;68.10;;;;;;5070670;28;20611;-80
2023/05/14 06:05:19;;;;;;;17.30;10.23;;;21.80;68.70;;;;;;5036765;28;20227;-79
2023/05/14 06:08:08;;;;;;;14.27;9.35;;;21.50;68.10;;;;;;5079425;28;20654;-82
2023/05/14 06:10:57;;;;;;;11.73;9.18;;;21.40;69.10;;;;;;5080879;28;20230;-85
2023/05/14 06:13:46;;;;;;;12.65;9.30;;;20.80;70.30;;;;;;5072625;28;20225;-83
2023/05/14 06:16:36;;;;;;;12.35;8.95;;;20.20;72.00;;;;;;5069490;28;20612;-80
2023/05/14 06:19:25;;;;;;;11.13;9.18;;;19.40;73.00;;;;;;5081930;28;20277;-77
2023/05/14 06:22:15;;;;;;;14.20;10.00;;;19.10;73.00;;;;;;5069928;28;20219;-76
2023/05/14 06:25:04;;;;;;;12.15;8.65;;;19.00;75.40;;;;;;5063829;28;20238;-79
2023/05/14 06:27:53;;;;;;;12.30;9.02;;;19.10;75.20;;;;;;5063505;28;20227;-78
2023/05/14 06:30:41;;;;;;;13.00;8.20;;;19.20;74.80;;;;;;5084634;28;20314;-79
2023/05/14 06:33:32;;;;;;;13.07;8.50;;;19.70;73.60;;;;;;5075793;28;20216;-77
2023/05/14 06:36:21;;;;;;;12.20;7.90;;;19.80;72.10;;;;;;5075943;28;20707;-90
2023/05/14 06:39:11;;;;;;;16.60;8.20;;;19.80;74.30;;;;;;5090852;28;20224;-80
2023/05/14 06:42:00;;;;;;;11.85;7.47;;;19.70;73.90;;;;;;5091091;28;21095;-85
2023/05/14 06:44:51;;;;;;;8.85;7.03;;;19.80;74.10;;;;;;5090198;28;20220;-83
2023/05/14 06:47:40;;;;;;;13.02;7.80;;;19.90;72.20;;;;;;5075456;28;20230;-79
2023/05/14 06:50:33;;;;;;;12.80;7.78;;;20.00;72.30;;;;;;5077162;28;20721;-79
2023/05/14 06:53:22;;;;;;;13.73;8.25;;;20.00;72.50;;;;;;5091518;27;20305;-79
2023/05/14 06:56:12;;;;;;;11.05;7.53;;;20.40;72.20;;;;;;5072009;28;20227;-79
2023/05/14 06:59:01;;;;;;;13.95;7.20;;;20.20;71.40;;;;;;5075425;28;20211;-80
2023/05/14 07:01:50;;;;;;;11.13;7.47;;;20.20;71.80;;;;;;5077202;28;20242;-74
2023/05/14 07:04:39;;;;;;;12.43;6.53;;;20.50;71.50;;;;;;5066763;28;20221;-77
2023/05/14 07:07:30;;;;;;;9.55;6.38;;;20.40;70.40;;;;;;5072772;28;20231;-80
2023/05/14 07:10:18;;;;;;;14.07;5.95;;;20.80;70.50;;;;;;5076036;28;20226;-82
2023/05/14 07:13:08;;;;;;;9.85;6.20;;;20.80;68.10;;;;;;5077995;28;20227;-82
2023/05/14 07:15:57;;;;;;;9.00;6.20;;;20.90;69.00;;;;;;5087305;28;20231;-82
2023/05/14 07:18:46;;;;;;;8.73;6.20;;;21.20;67.60;;;;;;5082834;28;20245;-81
2023/05/14 07:21:35;;;;;;;9.10;6.18;;;21.50;67.70;;;;;;5093774;27;20246;-81
2023/05/14 07:24:26;;;;;;;13.68;7.00;;;21.90;67.00;;;;;;5090225;28;20227;-81
2023/05/14 07:27:15;;;;;;;8.93;6.03;;;22.10;66.90;;;;;;5067136;28;20236;-71
2023/05/14 07:30:05;;;;;;;10.90;6.35;;;22.60;66.80;;;;;;5064914;28;20215;-74
2023/05/14 07:32:53;;;;;;;12.05;6.40;;;22.90;64.60;;;;;;5077329;28;20212;-73
2023/05/14 07:35:42;;;;;;;10.90;6.75;;;23.20;64.20;;;;;;5081306;28;20227;-76
2023/05/14 07:38:34;;;;;;;10.35;5.22;;;23.40;64.40;;;;;;5077325;28;20258;-78
2023/05/14 07:41:25;;;;;;;9.88;5.05;;;23.70;61.50;;;;;;5078575;28;20242;-76
2023/05/14 07:44:13;;;;;;;9.35;5.15;;;23.80;60.30;;;;;;5078063;28;20223;-73
2023/05/14 07:47:03;;;;;;;8.82;5.13;;;24.20;61.10;;;;;;5074629;28;20228;-76
2023/05/14 07:49:55;;;;;;;8.15;4.30;;;24.30;58.90;;;;;;5084748;28;20212;-74
2023/05/14 07:52:44;;;;;;;9.68;4.30;;;24.20;56.40;;;;;;5087338;28;20231;-72
2023/05/14 07:55:33;;;;;;;5.78;4.55;;;24.40;57.10;;;;;;5076594;28;20243;-73
2023/05/14 07:58:23;;;;;;;11.15;5.28;;;25.00;57.30;;;;;;5082050;28;20745;-73
2023/05/14 08:01:12;;;;;;;6.00;4.57;;;25.30;55.20;;;;;;5079417;28;20223;-72
2023/05/14 08:04:01;;;;;;;9.65;5.18;;;25.60;55.60;;;;;;5090895;28;20223;-72
2023/05/14 08:06:50;;;;;;;8.88;4.82;;;26.10;54.40;;;;;;5076372;28;20235;-72
2023/05/14 08:09:39;;;;;;;6.43;4.90;;;25.90;55.10;;;;;;5080254;28;20242;-73
2023/05/14 08:12:28;;;;;;;7.47;5.32;;;25.90;55.20;;;;;;5072639;28;20223;-73
2023/05/14 08:15:18;;;;;;;8.23;5.05;;;25.90;55.40;;;;;;5076979;28;20236;-72
2023/05/14 08:18:07;;;;;;;7.93;5.60;;;25.90;55.80;;;;;;5081961;28;20223;-73
2023/05/14 08:20:56;;;;;;;7.70;5.43;;;26.40;55.10;;;;;;5074043;28;20309;-73
2023/05/14 08:23:45;;;;;;;9.52;5.38;;;26.30;56.20;;;;;;5075367;28;20240;-72
2023/05/14 08:26:34;;;;;;;8.70;5.13;;;26.70;55.40;;;;;;5082545;28;20349;-73
2023/05/14 08:29:22;;;;;;;5.50;4.72;;;26.60;55.60;;;;;;5085467;28;20234;-74
2023/05/14 08:32:16;;;;;;;9.57;4.53;;;27.00;54.50;;;;;;5085783;28;20691;-72
2023/05/14 08:35:11;;;;;;;7.43;4.32;;;27.00;54.70;;;;;;5101124;28;20762;-73
2023/05/14 08:38:04;;;;;;;6.57;4.57;;;27.50;52.50;;;;;;5095312;28;20594;-73
2023/05/14 08:40:57;;;;;;;5.35;3.88;;;27.50;51.90;;;;;;5102508;28;20235;-72
2023/05/14 08:43:55;;;;;;;4.95;3.75;;;27.70;50.00;;;;;;5104263;28;20368;-73
2023/05/14 08:46:44;;;;;;;7.22;3.90;;;27.70;49.30;;;;;;5094400;28;20788;-72
2023/05/14 08:49:40;;;;;;;8.60;3.78;;;28.00;49.70;;;;;;5086097;28;20227;-72
2023/05/14 08:52:30;;;;;;;4.05;3.47;;;28.10;50.10;;;;;;5081839;28;20231;-72
2023/05/14 08:55:19;;;;;;;6.93;3.42;;;28.20;48.50;;;;;;5085148;28;20227;-73
2023/05/14 08:58:08;;;;;;;4.43;3.63;;;27.40;47.90;;;;;;5083090;28;20223;-71
2023/05/14 09:00:57;;;;;;;8.63;3.72;;;27.90;49.10;;;;;;5101980;28;20229;-72
2023/05/14 09:03:46;;;;;;;7.13;2.92;;;28.50;50.00;;;;;;5106350;27;20244;-72
2023/05/14 09:06:38;;;;;;;6.13;3.38;;;28.90;48.50;;;;;;5103368;27;20739;-72
2023/05/14 09:09:27;;;;;;;9.05;3.55;;;28.80;47.30;;;;;;5096273;28;20226;-72
2023/05/14 09:12:16;;;;;;;6.85;3.33;;;28.40;47.40;;;;;;5086467;28;20903;-73
2023/05/14 09:15:06;;;;;;;4.75;3.70;;;28.90;49.90;;;;;;5100313;28;20714;-71
2023/05/14 09:17:56;;;;;;;3.70;2.95;;;28.40;47.30;;;;;;5110494;27;20219;-73
2023/05/14 09:20:47;;;;;;;4.45;3.30;;;29.00;47.50;;;;;;5100802;28;20261;-72
2023/05/14 09:23:42;;;;;;;9.38;3.60;;;29.50;46.60;;;;;;5092551;28;20215;-74
2023/05/14 09:26:32;;;;;;;6.90;3.40;;;30.00;45.50;;;;;;5078242;28;20284;-73
2023/05/14 09:29:21;;;;;;;4.97;3.30;;;30.10;46.00;;;;;;5094694;27;20227;-73
2023/05/14 09:32:10;;;;;;;5.93;3.33;;;29.90;44.90;;;;;;5072603;28;20225;-72
2023/05/14 09:34:59;;;;;;;7.40;3.45;;;30.30;44.90;;;;;;5066793;28;20302;-73
2023/05/14 09:37:49;;;;;;;5.78;3.17;;;30.90;44.00;;;;;;5072022;28;20227;-72
2023/05/14 09:40:39;;;;;;;7.75;3.33;;;31.10;43.90;;;;;;5063706;28;20313;-72
2023/05/14 09:43:28;;;;;;;7.97;3.20;;;31.30;42.70;;;;;;5087956;28;20746;-72
2023/05/14 09:46:17;;;;;;;3.47;3.00;;;31.50;43.20;;;;;;5097846;28;20214;-74
2023/05/14 09:49:06;;;;;;;11.15;3.83;;;32.80;42.00;;;;;;5093323;28;20226;-71
2023/05/14 09:51:56;;;;;;;6.13;3.33;;;31.90;40.90;;;;;;5099494;28;20222;-74
2023/05/14 09:54:46;;;;;;;10.80;3.20;;;31.80;42.20;;;;;;5105760;28;20682;-70
2023/05/14 09:57:37;;;;;;;4.00;3.00;;;31.80;41.10;;;;;;5097751;27;20229;-73
2023/05/14 10:00:25;;;;;;;4.70;2.90;;;32.90;40.50;;;;;;5112892;28;20217;-70
2023/05/14 10:03:15;;;;;;;6.15;2.60;;;34.20;40.00;;;;;;5090420;28;20216;-72
2023/05/14 10:06:09;;;;;;;6.45;3.30;;;34.50;38.70;;;;;;5074168;28;20323;-70
2023/05/14 10:09:02;;;;;;;5.82;3.28;;;34.50;40.00;;;;;;5083830;28;20284;-69
2023/05/14 10:11:56;;;;;;;7.50;3.22;;;33.20;40.10;;;;;;5084945;28;20246;-71
2023/05/14 10:14:52;;;;;;;7.45;3.40;;;32.90;38.40;;;;;;5090985;28;20219;-70
2023/05/14 10:17:44;;;;;;;5.45;3.63;;;33.30;39.30;;;;;;5088239;28;20225;-71
2023/05/14 10:20:33;;;;;;;6.45;3.17;;;35.30;38.00;;;;;;5085702;28;20659;-72
2023/05/14 10:23:22;;;;;;;3.83;2.88;;;36.20;37.30;;;;;;5099585;28;21111;-74
2023/05/14 10:26:11;;;;;;;5.03;3.30;;;35.40;38.00;;;;;;5075139;28;20226;-72
2023/05/14 10:29:01;;;;;;;3.20;2.90;;;35.60;38.20;;;;;;5083584;28;20771;-72
2023/05/14 10:31:54;;;;;;;3.55;2.90;;;36.60;37.00;;;;;;5079151;28;20227;-70
2023/05/14 10:34:44;;;;;;;4.55;3.50;;;37.60;37.30;;;;;;5075242;28;20231;-72
2023/05/14 10:37:33;;;;;;;8.10;3.22;;;38.40;35.60;;;;;;5074369;28;20269;-74
2023/05/14 10:40:24;;;;;;;7.47;2.67;;;34.70;36.60;;;;;;5085074;28;20716;-72
2023/05/14 10:43:16;;;;;;;11.23;3.72;;;36.20;37.50;;;;;;5089069;28;20547;-72
2023/05/14 10:46:05;;;;;;;7.38;3.05;;;37.70;36.40;;;;;;5070900;28;20713;-71
2023/05/14 10:48:59;;;;;;;4.85;2.88;;;39.00;36.90;;;;;;5086749;28;20218;-70
2023/05/14 10:51:49;;;;;;;8.00;2.80;;;36.80;36.50;;;;;;5083705;28;20724;-72
2023/05/14 10:54:38;;;;;;;4.50;3.10;;;36.40;35.40;;;;;;5097935;28;20242;-72
2023/05/14 10:57:30;;;;;;;4.97;3.00;;;35.80;38.10;;;;;;5077567;28;20221;-72
2023/05/14 11:00:20;;;;;;;4.28;3.13;;;36.20;36.80;;;;;;5104697;27;20332;-73
2023/05/14 11:03:11;;;;;;;4.78;3.08;;;36.30;37.00;;;;;;5089456;28;20318;-73
2023/05/14 11:06:04;;;;;;;6.03;3.03;;;35.40;35.60;;;;;;5076548;28;20367;-72
2023/05/14 11:08:53;;;;;;;4.47;2.75;;;36.20;37.00;;;;;;5082428;28;20222;-72
2023/05/14 11:11:41;;;;;;;4.22;2.90;;;37.80;37.00;;;;;;5077032;28;20237;-72
2023/05/14 11:14:30;;;;;;;4.57;2.67;;;38.40;35.20;;;;;;5075392;28;20211;-73
2023/05/14 11:17:20;;;;;;;3.25;2.70;;;39.90;35.10;;;;;;5102741;28;20652;-72
2023/05/14 11:20:11;;;;;;;3.90;2.60;;;41.00;32.90;;;;;;5104091;28;20746;-72
2023/05/14 11:23:02;;;;;;;5.68;2.70;;;40.70;33.50;;;;;;5073374;28;20227;-73
2023/05/14 11:25:51;;;;;;;8.85;2.67;;;42.40;32.60;;;;;;5097511;28;20214;-72
2023/05/14 11:28:40;;;;;;;4.95;2.80;;;42.30;32.40;;;;;;5102071;28;20221;-73
2023/05/14 11:31:29;;;;;;;7.57;2.55;;;39.50;33.30;;;;;;5065598;28;20223;-72
2023/05/14 11:34:18;;;;;;;14.07;2.60;;;40.10;32.80;;;;;;5096729;28;20251;-70
2023/05/14 11:37:08;;;;;;;5.45;2.38;;;40.70;32.20;;;;;;5101453;28;20806;-73
2023/05/14 11:40:00;;;;;;;2.75;2.50;;;43.70;31.50;;;;;;5084971;28;20297;-75
2023/05/14 11:42:52;;;;;;;5.78;2.50;;;45.20;30.80;;;;;;5095599;28;20226;-72
2023/05/14 11:45:41;;;;;;;3.15;2.40;;;44.90;32.00;;;;;;5066696;28;20233;-72
2023/05/14 11:48:32;;;;;;;9.02;2.45;;;46.20;29.70;;;;;;5056193;28;20388;-73
2023/05/14 11:51:21;;;;;;;5.10;2.30;;;46.60;30.00;;;;;;5074101;28;20273;-74
2023/05/14 11:54:13;;;;;;;4.63;2.17;;;46.10;29.50;;;;;;5062124;28;20702;-73
2023/05/14 11:57:08;;;;;;;11.48;2.78;;;41.50;31.50;;;;;;5085379;28;20241;-73
2023/05/14 11:59:57;;;;;;;6.60;2.40;;;42.80;30.90;;;;;;5087526;28;20222;-73
2023/05/14 12:02:48;;;;;;;4.03;2.40;;;41.90;31.50;;;;;;5088689;28;20221;-72
2023/05/14 12:05:38;;;;;;;6.95;2.35;;;42.90;31.40;;;;;;5086940;28;20234;-74
2023/05/14 12:08:28;;;;;;;5.32;2.30;;;41.60;30.80;;;;;;5106902;28;20214;-72
2023/05/14 12:11:21;;;;;;;5.70;2.25;;;41.60;30.20;;;;;;5098598;28;20226;-73
2023/05/14 12:14:15;;;;;;;5.80;2.50;;;40.70;32.90;;;;;;5074198;28;20226;-73
2023/05/14 12:17:10;;;;;;;6.47;2.45;;;41.20;34.40;;;;;;5077666;28;20226;-73
2023/05/14 12:19:58;;;;;;;4.75;2.00;;;43.50;32.90;;;;;;5076028;28;20767;-73
2023/05/14 12:22:47;;;;;;;6.30;2.40;;;;;;;;;;5085877;28;20219;-73
2023/05/14 12:25:38;;;;;;;4.95;2.20;;;47.40;28.30;;;;;;5091681;28;20218;-74
2023/05/14 12:28:27;;;;;;;3.53;2.20;;;46.00;28.80;;;;;;5101234;28;20222;-73
2023/05/14 12:31:17;;;;;;;4.07;2.00;;;44.80;29.10;;;;;;5077990;28;20230;-73
2023/05/14 12:34:06;;;;;;;6.05;2.22;;;35.20;32.60;;;;;;5084248;28;20737;-73
2023/05/14 12:36:55;;;;;;;4.85;2.30;;;33.20;34.60;;;;;;5081222;28;20325;-73
2023/05/14 12:39:44;;;;;;;4.78;2.30;;;32.80;36.30;;;;;;5083466;28;20311;-73
2023/05/14 12:42:32;;;;;;;3.90;2.30;;;30.10;38.40;;;;;;5063297;28;20262;-73
2023/05/14 12:45:22;;;;;;;2.85;2.28;;;28.30;40.30;;;;;;5077048;28;20231;-75
2023/05/14 12:48:15;;;;;;;4.40;2.70;;;27.60;41.40;;;;;;5096177;28;20585;-79
2023/05/14 12:51:04;;;;;;;4.43;2.67;;;27.90;41.70;;;;;;5083608;28;20299;-81
2023/05/14 12:53:53;;;;;;;6.07;2.78;;;27.70;41.90;;;;;;5103383;27;20856;-79
2023/05/14 12:56:42;;;;;;;3.60;2.70;;;27.10;42.50;;;;;;5088857;28;20222;-80
2023/05/14 12:59:33;;;;;;;3.75;2.72;;;27.30;43.20;;;;;;5105176;28;20302;-76
2023/05/14 13:02:22;;;;;;;8.75;2.92;;;27.30;42.40;;;;;;5099753;27;20226;-81
2023/05/14 13:05:13;;;;;;;7.80;3.08;;;27.10;43.00;;;;;;5085370;28;20267;-78
2023/05/14 13:08:02;;;;;;;6.60;2.78;;;26.50;43.20;;;;;;5066771;28;20233;-81
2023/05/14 13:10:51;;;;;;;3.60;2.80;;;26.20;44.50;;;;;;5071339;28;20231;-82
2023/05/14 13:13:40;;;;;;;4.65;2.80;;;26.00;44.90;;;;;;5075608;28;20227;-78
2023/05/14 13:16:30;;;;;;;4.30;2.60;;;26.10;45.10;;;;;;5084361;28;20811;-77
2023/05/14 13:19:18;;;;;;;5.85;2.60;;;26.10;44.60;;;;;;5098705;28;20711;-73
2023/05/14 13:22:09;;;;;;;4.72;3.08;;;25.50;45.30;;;;;;5087283;28;20303;-76
2023/05/14 13:24:58;;;;;;;3.85;2.55;;;25.40;46.10;;;;;;5068145;28;20234;-73
2023/05/14 13:27:49;;;;;;;9.07;3.28;;;25.40;46.40;;;;;;5070075;28;20234;-71
2023/05/14 13:30:38;;;;;;;4.07;2.70;;;25.80;46.00;;;;;;5086104;28;20281;-75
2023/05/14 13:33:27;;;;;;;3.80;3.38;;;25.90;46.40;;;;;;5057455;28;20638;-75
2023/05/14 13:36:16;;;;;;;7.13;3.05;;;25.60;45.70;;;;;;5088487;28;20813;-75
2023/05/14 13:39:06;;;;;;;6.85;2.92;;;25.50;46.00;;;;;;5081211;28;20239;-78
2023/05/14 13:41:55;;;;;;;6.45;3.10;;;25.70;46.40;;;;;;5081197;28;20229;-78
2023/05/14 13:44:44;;;;;;;3.95;2.72;;;25.60;45.90;;;;;;5075595;28;20318;-83
2023/05/14 13:47:33;;;;;;;4.40;2.80;;;25.50;46.30;;;;;;5083994;28;20665;-83
2023/05/14 13:50:22;;;;;;;4.40;2.92;;;25.50;46.40;;;;;;5100007;28;20226;-83
2023/05/14 13:53:11;;;;;;;4.70;2.63;;;25.50;46.40;;;;;;5087850;28;20304;-83
2023/05/14 13:56:02;;;;;;;7.28;2.85;;;25.10;46.40;;;;;;5100958;28;20215;-84
2023/05/14 13:58:51;;;;;;;4.45;2.70;;;24.90;46.80;;;;;;5082901;28;20217;-82
2023/05/14 14:01:41;;;;;;;7.07;2.53;;;24.50;47.60;;;;;;5067138;28;20238;-83
2023/05/14 14:04:31;;;;;;;3.95;2.80;;;24.60;47.20;;;;;;5084032;28;20227;-84
2023/05/14 14:07:20;;;;;;;3.40;2.70;;;24.50;47.40;;;;;;5058702;28;20270;-83
2023/05/14 14:10:09;;;;;;;5.97;2.67;;;24.50;47.60;;;;;;5067667;28;20227;-85
2023/05/14 14:13:00;;;;;;;9.10;3.30;;;24.70;47.70;;;;;;5074081;28;20301;-80
2023/05/14 14:15:49;;;;;;;5.07;2.80;;;24.40;47.70;;;;;;5067912;28;20235;-82
2023/05/14 14:18:38;;;;;;;3.65;2.85;;;24.20;48.50;;;;;;5073407;28;20224;-82
2023/05/14 14:21:26;;;;;;;3.65;2.67;;;24.10;49.20;;;;;;5090481;28;20756;-80
2023/05/14 14:24:15;;;;;;;3.00;2.50;;;24.10;49.10;;;;;;5082315;28;20231;-79
2023/05/14 14:27:04;;;;;;;6.28;2.63;;;23.90;48.80;;;;;;5077622;28;20235;-78
2023/05/14 14:29:55;;;;;;;4.80;2.70;;;23.90;48.60;;;;;;5081759;28;20230;-76
2023/05/14 14:32:45;;;;;;;10.45;2.88;;;23.60;49.30;;;;;;5088732;28;20226;-77
2023/05/14 14:35:36;;;;;;;4.72;3.00;;;23.50;49.50;;;;;;5094942;28;20281;-77
2023/05/14 14:38:25;;;;;;;4.80;2.70;;;23.70;49.80;;;;;;5087217;28;20557;-81
2023/05/14 14:41:13;;;;;;;4.53;2.75;;;23.60;49.20;;;;;;5078782;28;20227;-77
2023/05/14 14:44:02;;;;;;;6.13;2.65;;;23.50;49.30;;;;;;5094111;28;20317;-76
2023/05/14 14:46:52;;;;;;;5.30;2.63;;;23.70;49.40;;;;;;5089897;28;20223;-74
2023/05/14 14:49:41;;;;;;;5.30;2.50;;;23.90;49.10;;;;;;5095825;27;20710;-82
2023/05/14 14:52:30;;;;;;;6.47;3.00;;;23.80;49.60;;;;;;5102388;27;20237;-82
2023/05/14 14:55:19;;;;;;;3.70;2.67;;;23.90;49.50;;;;;;5053015;28;20239;-82
2023/05/14 14:58:09;;;;;;;3.28;2.53;;;24.00;49.00;;;;;;5099081;28;20263;-82
2023/05/14 15:00:58;;;;;;;5.55;2.90;;;23.60;49.40;;;;;;5089347;28;20226;-81
2023/05/14 15:03:49;;;;;;;7.32;2.83;;;23.50;49.70;;;;;;5093504;28;20215;-81
2023/05/14 15:06:37;;;;;;;5.90;2.90;;;23.50;50.10;;;;;;5081320;28;20234;-80
2023/05/14 15:09:26;;;;;;;4.03;2.60;;;23.60;49.90;;;;;;5097977;28;20583;-82
2023/05/14 15:12:15;;;;;;;5.53;2.80;;;23.60;49.20;;;;;;5078624;28;20227;-81
2023/05/14 15:15:05;;;;;;;7.75;2.80;;;23.60;48.90;;;;;;5073466;28;20335;-81
2023/05/14 15:17:54;;;;;;;4.38;3.00;;;23.70;49.20;;;;;;5077258;28;20225;-81
2023/05/14 15:20:44;;;;;;;3.30;2.50;;;23.70;49.30;;;;;;5081013;28;20721;-81
2023/05/14 15:23:33;;;;;;;6.93;2.80;;;23.60;49.20;;;;;;5093686;28;20361;-82
2023/05/14 15:26:23;;;;;;;4.32;2.92;;;23.50;49.40;;;;;;5090151;28;20233;-82
2023/05/14 15:29:11;;;;;;;6.07;2.40;;;23.40;49.70;;;;;;5087627;28;20229;-82